sensor_id;sensor_type;location;lat;lon;timestamp;pressure;altitude;pressure_sealevel;temperature;humidity
26563;BME280;14217;50.986;5.826;2023-04-05T00:00:28;101768.25;;;18.20;38.20
26563;BME280;14217;50.986;5.826;2023-04-05T00:05:31;101769.13;;;18.19;38.00
26563;BME280;14217;50.986;5.826;2023-04-05T00:10:35;101766.44;;;18.21;37.99
26563;BME280;14217;50.986;5.826;2023-04-05T00:15:37;101750.56;;;18.19;38.15
26563;BME280;14217;50.986;5.826;2023-04-05T00:20:39;101746.97;;;18.22;38.26
26563;BME280;14217;50.986;5.826;2023-04-05T00:25:43;101750.63;;;18.18;38.20
26563;BME280;14217;50.986;5.826;2023-04-05T00:30:45;101756.00;;;18.15;38.37
26563;BME280;14217;50.986;5.826;2023-04-05T00:35:47;101762.97;;;18.19;38.20
26563;BME280;14217;50.986;5.826;2023-04-05T00:40:49;101753.47;;;18.12;38.44
26563;BME280;14217;50.986;5.826;2023-04-05T00:45:51;101753.34;;;18.15;38.43
26563;BME280;14217;50.986;5.826;2023-04-05T00:50:54;101742.69;;;18.18;38.05
26563;BME280;14217;50.986;5.826;2023-04-05T00:55:56;101730.31;;;18.17;38.14
26563;BME280;14217;50.986;5.826;2023-04-05T01:06:30;101727.75;;;18.14;38.47
26563;BME280;14217;50.986;5.826;2023-04-05T01:11:37;101719.88;;;18.11;38.35
26563;BME280;14217;50.986;5.826;2023-04-05T01:16:40;101725.19;;;18.11;38.46
26563;BME280;14217;50.986;5.826;2023-04-05T01:27:19;101713.69;;;18.12;38.35
26563;BME280;14217;50.986;5.826;2023-04-05T01:32:41;101725.19;;;18.11;38.27
26563;BME280;14217;50.986;5.826;2023-04-05T01:37:48;101722.53;;;18.11;38.46
26563;BME280;14217;50.986;5.826;2023-04-05T01:42:50;101724.34;;;18.08;38.26
26563;BME280;14217;50.986;5.826;2023-04-05T01:47:52;101723.47;;;18.10;38.41
26563;BME280;14217;50.986;5.826;2023-04-05T01:52:55;101727.84;;;18.11;38.53
26563;BME280;14217;50.986;5.826;2023-04-05T01:57:57;101718.22;;;18.06;38.65
26563;BME280;14217;50.986;5.826;2023-04-05T02:02:59;101712.75;;;18.13;38.40
26563;BME280;14217;50.986;5.826;2023-04-05T02:08:01;101718.22;;;18.06;38.66
26563;BME280;14217;50.986;5.826;2023-04-05T02:13:03;101710.19;;;18.10;38.34
26563;BME280;14217;50.986;5.826;2023-04-05T02:18:06;101703.28;;;18.04;38.71
26563;BME280;14217;50.986;5.826;2023-04-05T02:23:08;101692.63;;;18.05;38.46
26563;BME280;14217;50.986;5.826;2023-04-05T02:28:10;101696.09;;;18.07;38.36
26563;BME280;14217;50.986;5.826;2023-04-05T02:33:12;101704.06;;;18.07;38.57
26563;BME280;14217;50.986;5.826;2023-04-05T02:38:15;101702.31;;;18.06;38.48
26563;BME280;14217;50.986;5.826;2023-04-05T02:43:17;101701.44;;;18.06;38.64
26563;BME280;14217;50.986;5.826;2023-04-05T02:48:19;101701.44;;;18.06;38.61
26563;BME280;14217;50.986;5.826;2023-04-05T02:53:21;101712.88;;;18.08;38.75
26563;BME280;14217;50.986;5.826;2023-04-05T02:58:23;101716.47;;;18.07;38.61
26563;BME280;14217;50.986;5.826;2023-04-05T03:03:25;101707.72;;;18.03;38.61
26563;BME280;14217;50.986;5.826;2023-04-05T03:08:29;101693.50;;;18.06;38.50
26563;BME280;14217;50.986;5.826;2023-04-05T03:13:33;101692.66;;;18.04;38.79
26563;BME280;14217;50.986;5.826;2023-04-05T03:18:35;101684.72;;;18.04;38.74
26563;BME280;14217;50.986;5.826;2023-04-05T03:23:37;101689.97;;;18.05;38.48
26563;BME280;14217;50.986;5.826;2023-04-05T03:28:39;101685.69;;;18.01;38.83
26563;BME280;14217;50.986;5.826;2023-04-05T03:33:45;101678.53;;;18.03;38.76
26563;BME280;14217;50.986;5.826;2023-04-05T03:38:47;101675.19;;;17.98;38.82
26563;BME280;14217;50.986;5.826;2023-04-05T03:43:51;101677.00;;;17.96;38.65
26563;BME280;14217;50.986;5.826;2023-04-05T03:48:54;101671.78;;;17.93;38.71
26563;BME280;14217;50.986;5.826;2023-04-05T03:53:56;101668.00;;;18.00;38.82
26563;BME280;14217;50.986;5.826;2023-04-05T03:58:58;101663.59;;;18.01;38.84
26563;BME280;14217;50.986;5.826;2023-04-05T04:04:00;101664.47;;;18.01;38.48
26563;BME280;14217;50.986;5.826;2023-04-05T04:09:02;101665.34;;;18.00;38.80
26563;BME280;14217;50.986;5.826;2023-04-05T04:14:07;101655.69;;;17.99;38.82
26563;BME280;14217;50.986;5.826;2023-04-05T04:19:08;101660.94;;;18.01;38.64
26563;BME280;14217;50.986;5.826;2023-04-05T04:24:10;101654.81;;;17.99;38.52
26563;BME280;14217;50.986;5.826;2023-04-05T04:29:19;101657.41;;;18.00;38.49
26563;BME280;14217;50.986;5.826;2023-04-05T04:34:27;101657.34;;;18.03;38.41
26563;BME280;14217;50.986;5.826;2023-04-05T04:39:31;101656.50;;;18.01;38.43
26563;BME280;14217;50.986;5.826;2023-04-05T04:44:33;101650.47;;;17.96;38.82
26563;BME280;14217;50.986;5.826;2023-04-05T04:49:35;101654.84;;;17.97;38.55
26563;BME280;14217;50.986;5.826;2023-04-05T04:54:37;101654.03;;;17.95;38.52
26563;BME280;14217;50.986;5.826;2023-04-05T04:59:43;101655.69;;;17.99;38.62
26563;BME280;14217;50.986;5.826;2023-04-05T05:04:45;101657.47;;;17.99;38.64
26563;BME280;14217;50.986;5.826;2023-04-05T05:09:47;101650.41;;;17.98;38.82
26563;BME280;14217;50.986;5.826;2023-04-05T05:14:53;101654.88;;;17.96;38.52
26563;BME280;14217;50.986;5.826;2023-04-05T05:19:55;101653.06;;;17.98;38.50
26563;BME280;14217;50.986;5.826;2023-04-05T05:24:57;101660.19;;;17.96;38.51
26563;BME280;14217;50.986;5.826;2023-04-05T05:29:59;101659.34;;;17.95;38.46
26563;BME280;14217;50.986;5.826;2023-04-05T05:35:01;101661.13;;;17.95;38.46
26563;BME280;14217;50.986;5.826;2023-04-05T05:40:04;101655.78;;;17.96;38.43
26563;BME280;14217;50.986;5.826;2023-04-05T05:45:07;101649.59;;;17.96;38.48
26563;BME280;14217;50.986;5.826;2023-04-05T05:50:09;101653.16;;;17.95;38.63
26563;BME280;14217;50.986;5.826;2023-04-05T05:55:11;101658.44;;;17.96;38.56
26563;BME280;14217;50.986;5.826;2023-04-05T06:00:14;101655.84;;;17.93;38.80
26563;BME280;14217;50.986;5.826;2023-04-05T06:05:16;101654.13;;;17.92;38.65
26563;BME280;14217;50.986;5.826;2023-04-05T06:10:18;101650.56;;;17.93;38.74
26563;BME280;14217;50.986;5.826;2023-04-05T06:15:20;101654.22;;;17.89;39.36
26563;BME280;14217;50.986;5.826;2023-04-05T06:20:22;101649.91;;;18.15;38.79
26563;BME280;14217;50.986;5.826;2023-04-05T06:25:24;101652.13;;;18.30;38.43
26563;BME280;14217;50.986;5.826;2023-04-05T06:30:27;101649.81;;;18.47;37.95
26563;BME280;14217;50.986;5.826;2023-04-05T06:35:29;101652.16;;;18.57;37.96
26563;BME280;14217;50.986;5.826;2023-04-05T06:40:31;101657.38;;;18.60;37.88
26563;BME280;14217;50.986;5.826;2023-04-05T06:45:33;101642.13;;;18.66;37.41
26563;BME280;14217;50.986;5.826;2023-04-05T06:50:35;101648.41;;;18.64;37.51
26563;BME280;14217;50.986;5.826;2023-04-05T06:55:37;101641.91;;;18.44;37.90
26563;BME280;14217;50.986;5.826;2023-04-05T07:00:45;101648.72;;;17.95;38.51
26563;BME280;14217;50.986;5.826;2023-04-05T07:05:55;101655.00;;;17.93;38.83
26563;BME280;14217;50.986;5.826;2023-04-05T07:11:00;101656.59;;;18.28;39.24
26563;BME280;14217;50.986;5.826;2023-04-05T07:16:02;101654.38;;;18.42;39.34
26563;BME280;14217;50.986;5.826;2023-04-05T07:21:05;101649.06;;;18.71;38.53
26563;BME280;14217;50.986;5.826;2023-04-05T07:26:07;101667.00;;;18.64;38.03
26563;BME280;14217;50.986;5.826;2023-04-05T07:31:09;101663.56;;;18.60;37.66
26563;BME280;14217;50.986;5.826;2023-04-05T07:36:11;101667.94;;;18.61;37.21
26563;BME280;14217;50.986;5.826;2023-04-05T07:41:13;101661.94;;;18.26;38.02
26563;BME280;14217;50.986;5.826;2023-04-05T07:46:17;101664.97;;;18.14;38.48
26563;BME280;14217;50.986;5.826;2023-04-05T07:51:19;101665.00;;;18.13;38.29
26563;BME280;14217;50.986;5.826;2023-04-05T07:56:21;101665.00;;;18.13;38.50
26563;BME280;14217;50.986;5.826;2023-04-05T08:01:24;101677.34;;;18.15;38.50
26563;BME280;14217;50.986;5.826;2023-04-05T08:06:29;101673.88;;;18.12;38.55
26563;BME280;14217;50.986;5.826;2023-04-05T08:11:32;101670.38;;;18.11;38.45
26563;BME280;14217;50.986;5.826;2023-04-05T08:16:34;101674.44;;;18.23;37.89
26563;BME280;14217;50.986;5.826;2023-04-05T08:21:36;101679.88;;;18.18;38.12
26563;BME280;14217;50.986;5.826;2023-04-05T08:26:38;101674.59;;;18.17;37.95
26563;BME280;14217;50.986;5.826;2023-04-05T08:31:42;101666.72;;;18.15;38.27
26563;BME280;14217;50.986;5.826;2023-04-05T08:36:44;101663.94;;;18.20;38.12
26563;BME280;14217;50.986;5.826;2023-04-05T08:42:16;101665.81;;;18.15;38.39
26563;BME280;14217;50.986;5.826;2023-04-05T08:47:19;101665.81;;;18.15;38.35
26563;BME280;14217;50.986;5.826;2023-04-05T08:52:24;101661.34;;;18.17;38.42
26563;BME280;14217;50.986;5.826;2023-04-05T08:57:28;101660.53;;;18.15;38.42
26563;BME280;14217;50.986;5.826;2023-04-05T09:02:32;101651.75;;;18.13;38.54
26563;BME280;14217;50.986;5.826;2023-04-05T09:07:35;101654.50;;;18.10;38.63
26563;BME280;14217;50.986;5.826;2023-04-05T09:12:38;101650.03;;;18.12;38.57
26563;BME280;14217;50.986;5.826;2023-04-05T09:17:42;101642.88;;;18.14;38.42
26563;BME280;14217;50.986;5.826;2023-04-05T09:22:45;101646.53;;;18.10;38.47
26563;BME280;14217;50.986;5.826;2023-04-05T09:27:54;101650.16;;;18.07;38.81
26563;BME280;14217;50.986;5.826;2023-04-05T09:32:57;101641.69;;;18.24;35.78
26563;BME280;14217;50.986;5.826;2023-04-05T09:38:00;101629.47;;;18.46;34.05
26563;BME280;14217;50.986;5.826;2023-04-05T09:43:02;101639.81;;;18.56;34.27
26563;BME280;14217;50.986;5.826;2023-04-05T09:48:04;101642.81;;;18.45;34.14
26563;BME280;14217;50.986;5.826;2023-04-05T09:53:11;101632.94;;;18.48;34.30
26563;BME280;14217;50.986;5.826;2023-04-05T09:58:20;101627.75;;;18.45;34.48
26563;BME280;14217;50.986;5.826;2023-04-05T10:03:24;101626.81;;;18.46;34.71
26563;BME280;14217;50.986;5.826;2023-04-05T10:08:27;101626.91;;;18.45;34.28
26563;BME280;14217;50.986;5.826;2023-04-05T10:13:29;101615.47;;;18.43;34.44
26563;BME280;14217;50.986;5.826;2023-04-05T10:18:39;101609.19;;;18.45;33.85
26563;BME280;14217;50.986;5.826;2023-04-05T10:23:45;101619.84;;;18.44;33.79
26563;BME280;14217;50.986;5.826;2023-04-05T10:28:51;101617.22;;;18.42;34.15
26563;BME280;14217;50.986;5.826;2023-04-05T10:34:32;101606.50;;;18.47;34.05
26563;BME280;14217;50.986;5.826;2023-04-05T10:39:41;101607.44;;;18.44;33.86
26563;BME280;14217;50.986;5.826;2023-04-05T10:44:51;101615.50;;;18.41;33.54
26563;BME280;14217;50.986;5.826;2023-04-05T10:49:55;101607.53;;;18.41;33.01
26563;BME280;14217;50.986;5.826;2023-04-05T10:55:01;101601.03;;;18.52;32.18
26563;BME280;14217;50.986;5.826;2023-04-05T11:00:05;101594.03;;;18.49;31.86
26563;BME280;14217;50.986;5.826;2023-04-05T11:05:28;101585.09;;;18.52;32.43
26563;BME280;14217;50.986;5.826;2023-04-05T11:10:31;101585.19;;;18.48;32.83
26563;BME280;14217;50.986;5.826;2023-04-05T11:15:35;101580.97;;;18.43;32.43
26563;BME280;14217;50.986;5.826;2023-04-05T11:20:42;101580.00;;;18.45;32.46
26563;BME280;14217;50.986;5.826;2023-04-05T11:25:52;101566.69;;;18.47;32.30
26563;BME280;14217;50.986;5.826;2023-04-05T11:30:55;101570.44;;;18.12;33.00
26563;BME280;14217;50.986;5.826;2023-04-05T11:36:01;101556.88;;;18.21;32.62
26563;BME280;14217;50.986;5.826;2023-04-05T11:46:13;101542.94;;;18.42;32.87
26563;BME280;14217;50.986;5.826;2023-04-05T11:51:19;101532.78;;;18.28;34.60
26563;BME280;14217;50.986;5.826;2023-04-05T11:56:27;101523.06;;;18.27;36.04
26563;BME280;14217;50.986;5.826;2023-04-05T12:01:29;101522.22;;;18.27;36.83
26563;BME280;14217;50.986;5.826;2023-04-05T12:06:33;101515.38;;;18.20;38.60
26563;BME280;14217;50.986;5.826;2023-04-05T12:11:35;101513.91;;;18.11;39.17
26563;BME280;14217;50.986;5.826;2023-04-05T12:16:47;101509.34;;;18.15;39.78
26563;BME280;14217;50.986;5.826;2023-04-05T12:21:50;101502.31;;;18.14;39.92
26563;BME280;14217;50.986;5.826;2023-04-05T12:26:52;101499.00;;;18.07;36.55
26563;BME280;14217;50.986;5.826;2023-04-05T12:31:59;101504.97;;;18.14;34.87
26563;BME280;14217;50.986;5.826;2023-04-05T12:37:02;101492.72;;;18.10;35.49
26563;BME280;14217;50.986;5.826;2023-04-05T12:42:04;101489.06;;;18.14;34.93
26563;BME280;14217;50.986;5.826;2023-04-05T12:47:06;101478.66;;;18.07;35.15
26563;BME280;14217;50.986;5.826;2023-04-05T12:52:18;101481.34;;;18.06;34.85
26563;BME280;14217;50.986;5.826;2023-04-05T12:57:32;101476.63;;;18.16;34.68
26563;BME280;14217;50.986;5.826;2023-04-05T13:02:35;101457.88;;;18.20;35.05
26563;BME280;14217;50.986;5.826;2023-04-05T13:07:38;101460.41;;;18.23;34.14
26563;BME280;14217;50.986;5.826;2023-04-05T13:12:40;101456.94;;;18.21;32.17
26563;BME280;14217;50.986;5.826;2023-04-05T13:17:43;101454.22;;;18.24;31.45
26563;BME280;14217;50.986;5.826;2023-04-05T13:22:50;101453.44;;;18.21;31.42
26563;BME280;14217;50.986;5.826;2023-04-05T13:27:53;101449.88;;;18.22;28.65
26563;BME280;14217;50.986;5.826;2023-04-05T13:32:55;101438.38;;;18.21;26.86
26563;BME280;14217;50.986;5.826;2023-04-05T13:37:57;101437.00;;;18.11;26.61
26563;BME280;14217;50.986;5.826;2023-04-05T13:43:02;101432.25;;;17.94;25.83
26563;BME280;14217;50.986;5.826;2023-04-05T13:48:04;101420.91;;;18.16;24.70
26563;BME280;14217;50.986;5.826;2023-04-05T13:53:06;101414.63;;;17.92;24.69
26563;BME280;14217;50.986;5.826;2023-04-05T13:58:08;101413.44;;;18.00;23.86
26563;BME280;14217;50.986;5.826;2023-04-05T14:03:11;101409.50;;;18.14;25.01
26563;BME280;14217;50.986;5.826;2023-04-05T14:08:14;101407.84;;;18.10;23.63
26563;BME280;14217;50.986;5.826;2023-04-05T14:13:16;101403.00;;;18.22;23.19
26563;BME280;14217;50.986;5.826;2023-04-05T14:18:18;101393.63;;;18.12;24.06
26563;BME280;14217;50.986;5.826;2023-04-05T14:23:20;101390.94;;;18.14;23.82
26563;BME280;14217;50.986;5.826;2023-04-05T14:28:22;101384.44;;;18.22;24.82
26563;BME280;14217;50.986;5.826;2023-04-05T14:33:25;101376.44;;;18.24;25.61
26563;BME280;14217;50.986;5.826;2023-04-05T14:38:29;101370.09;;;18.28;24.82
26563;BME280;14217;50.986;5.826;2023-04-05T14:43:31;101365.94;;;18.19;26.04
26563;BME280;14217;50.986;5.826;2023-04-05T14:48:33;101365.50;;;18.33;26.42
26563;BME280;14217;50.986;5.826;2023-04-05T14:53:36;101363.97;;;18.26;25.98
26563;BME280;14217;50.986;5.826;2023-04-05T14:58:38;101365.09;;;18.19;27.09
26563;BME280;14217;50.986;5.826;2023-04-05T15:03:40;101356.03;;;18.26;27.80
26563;BME280;14217;50.986;5.826;2023-04-05T15:08:42;101353.81;;;18.39;27.81
26563;BME280;14217;50.986;5.826;2023-04-05T15:13:45;101349.94;;;18.22;28.34
26563;BME280;14217;50.986;5.826;2023-04-05T15:18:47;101352.19;;;18.35;28.15
26563;BME280;14217;50.986;5.826;2023-04-05T15:23:51;101340.81;;;18.55;28.00
26563;BME280;14217;50.986;5.826;2023-04-05T15:28:54;101341.25;;;18.42;28.16
26563;BME280;14217;50.986;5.826;2023-04-05T15:33:57;101334.28;;;18.40;27.89
26563;BME280;14217;50.986;5.826;2023-04-05T15:38:59;101333.84;;;18.52;28.12
26563;BME280;14217;50.986;5.826;2023-04-05T15:44:01;101318.94;;;18.24;28.23
26563;BME280;14217;50.986;5.826;2023-04-05T15:49:05;101324.09;;;18.53;27.90
26563;BME280;14217;50.986;5.826;2023-04-05T15:54:07;101317.66;;;18.60;27.96
26563;BME280;14217;50.986;5.826;2023-04-05T15:59:09;101317.75;;;18.57;28.10
26563;BME280;14217;50.986;5.826;2023-04-05T16:04:12;101315.84;;;18.60;28.29
26563;BME280;14217;50.986;5.826;2023-04-05T16:09:14;101310.50;;;18.62;28.71
26563;BME280;14217;50.986;5.826;2023-04-05T16:14:16;101299.00;;;18.61;28.84
26563;BME280;14217;50.986;5.826;2023-04-05T16:19:18;101295.44;;;18.62;29.34
26563;BME280;14217;50.986;5.826;2023-04-05T16:24:20;101299.97;;;18.59;29.55
26563;BME280;14217;50.986;5.826;2023-04-05T16:29:23;101291.75;;;18.66;29.55
26563;BME280;14217;50.986;5.826;2023-04-05T16:34:25;101288.28;;;18.64;29.85
26563;BME280;14217;50.986;5.826;2023-04-05T16:39:27;101287.47;;;18.62;30.05
26563;BME280;14217;50.986;5.826;2023-04-05T16:44:29;101297.47;;;18.56;30.52
26563;BME280;14217;50.986;5.826;2023-04-05T16:49:33;101283.84;;;18.65;30.34
26563;BME280;14217;50.986;5.826;2023-04-05T16:54:35;101284.00;;;18.60;30.64
26563;BME280;14217;50.986;5.826;2023-04-05T16:59:38;101280.38;;;18.63;30.60
26563;BME280;14217;50.986;5.826;2023-04-05T17:04:40;101291.94;;;18.62;30.97
26563;BME280;14217;50.986;5.826;2023-04-05T17:09:42;101293.06;;;18.55;31.17
26563;BME280;14217;50.986;5.826;2023-04-05T17:14:45;101284.88;;;18.61;31.29
26563;BME280;14217;50.986;5.826;2023-04-05T17:19:47;101281.47;;;18.57;31.81
26563;BME280;14217;50.986;5.826;2023-04-05T17:24:49;101281.34;;;18.60;31.66
26563;BME280;14217;50.986;5.826;2023-04-05T17:29:51;101285.69;;;18.63;31.88
26563;BME280;14217;50.986;5.826;2023-04-05T17:34:54;101290.06;;;18.64;31.96
26563;BME280;14217;50.986;5.826;2023-04-05T17:39:56;101296.28;;;18.63;31.72
26563;BME280;14217;50.986;5.826;2023-04-05T17:44:58;101293.41;;;18.69;31.95
26563;BME280;14217;50.986;5.826;2023-04-05T17:50:00;101290.63;;;18.48;32.49
26563;BME280;14217;50.986;5.826;2023-04-05T17:55:03;101292.78;;;18.39;32.79
26563;BME280;14217;50.986;5.826;2023-04-05T18:00:06;101285.03;;;18.56;32.79
26563;BME280;14217;50.986;5.826;2023-04-05T18:05:08;101290.19;;;18.61;32.49
26563;BME280;14217;50.986;5.826;2023-04-05T18:10:11;101291.13;;;18.60;32.67
26563;BME280;14217;50.986;5.826;2023-04-05T18:15:13;101290.19;;;18.61;32.61
26563;BME280;14217;50.986;5.826;2023-04-05T18:20:17;101291.13;;;18.60;32.72
26563;BME280;14217;50.986;5.826;2023-04-05T18:25:19;101289.28;;;18.62;32.70
26563;BME280;14217;50.986;5.826;2023-04-05T18:30:22;101295.03;;;18.49;33.07
26563;BME280;14217;50.986;5.826;2023-04-05T18:35:24;101292.03;;;18.59;33.24
26563;BME280;14217;50.986;5.826;2023-04-05T18:40:26;101297.22;;;18.62;33.27
26563;BME280;14217;50.986;5.826;2023-04-05T18:45:30;101299.88;;;18.62;33.30
26563;BME280;14217;50.986;5.826;2023-04-05T18:50:33;101295.44;;;18.62;33.01
26563;BME280;14217;50.986;5.826;2023-04-05T18:55:35;101300.97;;;18.56;33.46
26563;BME280;14217;50.986;5.826;2023-04-05T19:00:38;101306.22;;;18.58;33.27
26563;BME280;14217;50.986;5.826;2023-04-05T19:05:40;101307.09;;;18.58;33.25
26563;BME280;14217;50.986;5.826;2023-04-05T19:10:42;101311.47;;;18.59;33.25
26563;BME280;14217;50.986;5.826;2023-04-05T19:15:44;101315.81;;;18.62;33.15
26563;BME280;14217;50.986;5.826;2023-04-05T19:20:47;101315.69;;;18.65;33.27
26563;BME280;14217;50.986;5.826;2023-04-05T19:25:49;101320.31;;;18.60;33.30
26563;BME280;14217;50.986;5.826;2023-04-05T19:30:52;101316.63;;;18.64;33.43
26563;BME280;14217;50.986;5.826;2023-04-05T19:35:56;101313.84;;;18.67;33.16
26563;BME280;14217;50.986;5.826;2023-04-05T19:40:58;101314.06;;;18.61;33.32
26563;BME280;14217;50.986;5.826;2023-04-05T19:46:00;101318.50;;;18.60;33.41
26563;BME280;14217;50.986;5.826;2023-04-05T19:51:04;101312.44;;;18.57;33.50
26563;BME280;14217;50.986;5.826;2023-04-05T19:56:17;101309.69;;;18.60;33.63
26563;BME280;14217;50.986;5.826;2023-04-05T20:01:28;101310.56;;;18.60;33.64
26563;BME280;14217;50.986;5.826;2023-04-05T20:06:30;101307.91;;;18.60;33.65
26563;BME280;14217;50.986;5.826;2023-04-05T20:11:33;101306.06;;;18.62;33.79
26563;BME280;14217;50.986;5.826;2023-04-05T20:16:36;101293.78;;;18.60;33.65
26563;BME280;14217;50.986;5.826;2023-04-05T20:21:38;101299.13;;;18.58;33.62
26563;BME280;14217;50.986;5.826;2023-04-05T20:26:41;101291.94;;;18.62;33.88
26563;BME280;14217;50.986;5.826;2023-04-05T20:31:44;101290.13;;;18.62;33.73
26563;BME280;14217;50.986;5.826;2023-04-05T20:36:49;101285.91;;;18.57;33.91
26563;BME280;14217;50.986;5.826;2023-04-05T20:41:51;101278.88;;;18.56;34.12
26563;BME280;14217;50.986;5.826;2023-04-05T20:46:54;101276.22;;;18.56;33.74
26563;BME280;14217;50.986;5.826;2023-04-05T20:51:58;101276.16;;;18.57;33.74
26563;BME280;14217;50.986;5.826;2023-04-05T20:57:00;101276.22;;;18.56;33.81
26563;BME280;14217;50.986;5.826;2023-04-05T21:02:03;101277.13;;;18.55;34.17
26563;BME280;14217;50.986;5.826;2023-04-05T21:07:05;101282.34;;;18.58;34.02
26563;BME280;14217;50.986;5.826;2023-04-05T21:12:07;101276.09;;;18.59;34.08
26563;BME280;14217;50.986;5.826;2023-04-05T21:17:09;101273.66;;;18.53;34.46
26563;BME280;14217;50.986;5.826;2023-04-05T21:22:11;101271.97;;;18.52;34.28
26563;BME280;14217;50.986;5.826;2023-04-05T21:27:13;101273.75;;;18.51;34.84
26563;BME280;14217;50.986;5.826;2023-04-05T21:32:15;101270.13;;;18.54;34.60
26563;BME280;14217;50.986;5.826;2023-04-05T21:37:17;101265.78;;;18.51;34.66
26563;BME280;14217;50.986;5.826;2023-04-05T21:42:20;101267.50;;;18.52;34.82
26563;BME280;14217;50.986;5.826;2023-04-05T21:47:22;101270.16;;;18.52;34.60
26563;BME280;14217;50.986;5.826;2023-04-05T21:52:25;101260.50;;;18.51;34.91
26563;BME280;14217;50.986;5.826;2023-04-05T21:57:27;101267.50;;;18.52;34.52
26563;BME280;14217;50.986;5.826;2023-04-05T22:02:29;101266.69;;;18.50;34.76
26563;BME280;14217;50.986;5.826;2023-04-05T22:07:32;101258.78;;;18.48;34.65
26563;BME280;14217;50.986;5.826;2023-04-05T22:12:34;101258.75;;;18.50;34.91
26563;BME280;14217;50.986;5.826;2023-04-05T22:17:36;101250.69;;;18.53;34.91
26563;BME280;14217;50.986;5.826;2023-04-05T22:22:38;101256.03;;;18.52;34.74
26563;BME280;14217;50.986;5.826;2023-04-05T22:27:40;101251.78;;;18.47;35.13
26563;BME280;14217;50.986;5.826;2023-04-05T22:32:42;101254.38;;;18.49;35.16
26563;BME280;14217;50.986;5.826;2023-04-05T22:37:45;101248.97;;;18.51;34.97
26563;BME280;14217;50.986;5.826;2023-04-05T22:42:47;101245.41;;;18.52;35.09
26563;BME280;14217;50.986;5.826;2023-04-05T22:47:49;101240.22;;;18.48;35.04
26563;BME280;14217;50.986;5.826;2023-04-05T22:52:52;101242.88;;;18.48;35.09
26563;BME280;14217;50.986;5.826;2023-04-05T22:57:54;101243.81;;;18.47;35.08
26563;BME280;14217;50.986;5.826;2023-04-05T23:02:56;101236.75;;;18.46;35.09
26563;BME280;14217;50.986;5.826;2023-04-05T23:07:58;101235.03;;;18.45;35.47
26563;BME280;14217;50.986;5.826;2023-04-05T23:13:00;101221.59;;;18.50;35.11
26563;BME280;14217;50.986;5.826;2023-04-05T23:18:02;101212.00;;;18.46;35.47
26563;BME280;14217;50.986;5.826;2023-04-05T23:23:04;101212.94;;;18.45;35.35
26563;BME280;14217;50.986;5.826;2023-04-05T23:28:07;101216.47;;;18.45;35.49
26563;BME280;14217;50.986;5.826;2023-04-05T23:33:09;101209.31;;;18.47;35.18
26563;BME280;14217;50.986;5.826;2023-04-05T23:38:14;101206.84;;;18.43;35.46
26563;BME280;14217;50.986;5.826;2023-04-05T23:43:16;101198.94;;;18.41;35.37
26563;BME280;14217;50.986;5.826;2023-04-05T23:48:18;101191.72;;;18.45;35.40
26563;BME280;14217;50.986;5.826;2023-04-05T23:53:20;101195.34;;;18.42;35.75
26563;BME280;14217;50.986;5.826;2023-04-05T23:58:22;101194.47;;;18.42;35.66
